sensor_id;sensor_type;location;lat;lon;timestamp;temperature;humidity
41694;DHT22;27377;50.666;9.150;2023-10-08T00:01:08;15.40;99.90
41694;DHT22;27377;50.666;9.150;2023-10-08T00:03:38;15.30;99.90
41694;DHT22;27377;50.666;9.150;2023-10-08T00:06:04;15.40;99.90
41694;DHT22;27377;50.666;9.150;2023-10-08T00:08:35;15.30;99.90
41694;DHT22;27377;50.666;9.150;2023-10-08T00:11:01;15.30;99.90
41694;DHT22;27377;50.666;9.150;2023-10-08T00:13:35;15.30;99.90
41694;DHT22;27377;50.666;9.150;2023-10-08T00:16:06;15.30;99.90
41694;DHT22;27377;50.666;9.150;2023-10-08T00:18:34;15.30;99.90
41694;DHT22;27377;50.666;9.150;2023-10-08T00:21:00;15.30;99.90
41694;DHT22;27377;50.666;9.150;2023-10-08T00:23:35;15.30;99.90
41694;DHT22;27377;50.666;9.150;2023-10-08T00:26:02;15.30;99.90
41694;DHT22;27377;50.666;9.150;2023-10-08T00:28:30;15.30;99.90
41694;DHT22;27377;50.666;9.150;2023-10-08T00:31:03;15.30;99.90
41694;DHT22;27377;50.666;9.150;2023-10-08T00:33:38;15.30;99.90
41694;DHT22;27377;50.666;9.150;2023-10-08T00:36:04;15.30;99.90
41694;DHT22;27377;50.666;9.150;2023-10-08T00:38:43;15.30;99.90
41694;DHT22;27377;50.666;9.150;2023-10-08T00:41:13;15.30;99.90
41694;DHT22;27377;50.666;9.150;2023-10-08T00:43:40;15.30;99.90
41694;DHT22;27377;50.666;9.150;2023-10-08T00:46:07;15.20;99.90
41694;DHT22;27377;50.666;9.150;2023-10-08T00:48:52;15.30;99.90
41694;DHT22;27377;50.666;9.150;2023-10-08T00:51:23;15.30;99.90
41694;DHT22;27377;50.666;9.150;2023-10-08T00:53:54;15.30;99.90
41694;DHT22;27377;50.666;9.150;2023-10-08T00:56:27;15.20;99.90
41694;DHT22;27377;50.666;9.150;2023-10-08T00:59:09;15.20;99.90
41694;DHT22;27377;50.666;9.150;2023-10-08T01:01:39;15.20;99.90
41694;DHT22;27377;50.666;9.150;2023-10-08T01:04:04;15.20;99.90
41694;DHT22;27377;50.666;9.150;2023-10-08T01:06:37;15.20;99.90
41694;DHT22;27377;50.666;9.150;2023-10-08T01:09:05;15.20;99.90
41694;DHT22;27377;50.666;9.150;2023-10-08T01:11:42;15.10;99.90
41694;DHT22;27377;50.666;9.150;2023-10-08T01:14:15;15.10;99.90
41694;DHT22;27377;50.666;9.150;2023-10-08T01:16:41;15.10;99.90
41694;DHT22;27377;50.666;9.150;2023-10-08T01:19:10;15.10;99.90
41694;DHT22;27377;50.666;9.150;2023-10-08T01:21:39;15.10;99.90
41694;DHT22;27377;50.666;9.150;2023-10-08T01:24:07;15.10;99.90
41694;DHT22;27377;50.666;9.150;2023-10-08T01:26:34;15.10;99.90
41694;DHT22;27377;50.666;9.150;2023-10-08T01:28:59;15.10;99.90
41694;DHT22;27377;50.666;9.150;2023-10-08T01:31:29;15.00;99.90
41694;DHT22;27377;50.666;9.150;2023-10-08T01:33:55;15.00;99.90
41694;DHT22;27377;50.666;9.150;2023-10-08T01:36:23;15.00;99.90
41694;DHT22;27377;50.666;9.150;2023-10-08T01:38:50;15.00;99.90
41694;DHT22;27377;50.666;9.150;2023-10-08T01:41:20;15.00;99.90
41694;DHT22;27377;50.666;9.150;2023-10-08T01:46:59;15.00;99.90
41694;DHT22;27377;50.666;9.150;2023-10-08T01:49:24;14.90;99.90
41694;DHT22;27377;50.666;9.150;2023-10-08T01:51:57;14.90;99.90
41694;DHT22;27377;50.666;9.150;2023-10-08T01:54:23;14.90;99.90
41694;DHT22;27377;50.666;9.150;2023-10-08T01:56:51;14.90;99.90
41694;DHT22;27377;50.666;9.150;2023-10-08T01:59:17;14.90;99.90
41694;DHT22;27377;50.666;9.150;2023-10-08T02:01:43;14.90;99.90
41694;DHT22;27377;50.666;9.150;2023-10-08T02:04:10;14.90;99.90
41694;DHT22;27377;50.666;9.150;2023-10-08T02:06:38;15.00;99.90
41694;DHT22;27377;50.666;9.150;2023-10-08T02:09:05;15.00;99.90
41694;DHT22;27377;50.666;9.150;2023-10-08T02:11:46;15.00;99.90
41694;DHT22;27377;50.666;9.150;2023-10-08T02:14:16;15.00;99.90
41694;DHT22;27377;50.666;9.150;2023-10-08T02:16:43;15.00;99.90
41694;DHT22;27377;50.666;9.150;2023-10-08T02:19:08;14.90;99.90
41694;DHT22;27377;50.666;9.150;2023-10-08T02:21:36;14.90;99.90
41694;DHT22;27377;50.666;9.150;2023-10-08T02:24:04;14.90;99.90
41694;DHT22;27377;50.666;9.150;2023-10-08T02:26:30;14.90;99.90
41694;DHT22;27377;50.666;9.150;2023-10-08T02:28:56;14.90;99.90
41694;DHT22;27377;50.666;9.150;2023-10-08T02:31:25;14.90;99.90
41694;DHT22;27377;50.666;9.150;2023-10-08T02:33:50;14.80;99.90
41694;DHT22;27377;50.666;9.150;2023-10-08T02:36:16;14.80;99.90
41694;DHT22;27377;50.666;9.150;2023-10-08T02:38:41;14.80;99.90
41694;DHT22;27377;50.666;9.150;2023-10-08T02:41:07;14.80;99.90
41694;DHT22;27377;50.666;9.150;2023-10-08T02:43:33;14.80;99.90
41694;DHT22;27377;50.666;9.150;2023-10-08T02:46:02;14.80;99.90
41694;DHT22;27377;50.666;9.150;2023-10-08T02:48:33;14.80;99.90
41694;DHT22;27377;50.666;9.150;2023-10-08T02:51:00;14.80;99.90
41694;DHT22;27377;50.666;9.150;2023-10-08T02:53:37;14.80;99.90
41694;DHT22;27377;50.666;9.150;2023-10-08T02:56:02;14.80;99.90
41694;DHT22;27377;50.666;9.150;2023-10-08T02:58:38;14.70;99.90
41694;DHT22;27377;50.666;9.150;2023-10-08T03:01:04;14.70;99.90
41694;DHT22;27377;50.666;9.150;2023-10-08T03:03:29;14.70;99.90
41694;DHT22;27377;50.666;9.150;2023-10-08T03:05:57;14.70;99.90
41694;DHT22;27377;50.666;9.150;2023-10-08T03:08:23;14.80;99.90
41694;DHT22;27377;50.666;9.150;2023-10-08T03:10:50;14.80;99.90
41694;DHT22;27377;50.666;9.150;2023-10-08T03:13:21;14.80;99.90
41694;DHT22;27377;50.666;9.150;2023-10-08T03:15:47;14.70;99.90
41694;DHT22;27377;50.666;9.150;2023-10-08T03:18:24;14.80;99.90
41694;DHT22;27377;50.666;9.150;2023-10-08T03:20:50;14.80;99.90
41694;DHT22;27377;50.666;9.150;2023-10-08T03:23:16;14.80;99.90
41694;DHT22;27377;50.666;9.150;2023-10-08T03:25:58;14.80;99.90
41694;DHT22;27377;50.666;9.150;2023-10-08T03:28:28;14.80;99.90
41694;DHT22;27377;50.666;9.150;2023-10-08T03:30:55;14.80;99.90
41694;DHT22;27377;50.666;9.150;2023-10-08T03:33:34;14.70;99.90
41694;DHT22;27377;50.666;9.150;2023-10-08T03:36:07;14.70;99.90
41694;DHT22;27377;50.666;9.150;2023-10-08T03:39:02;14.60;99.90
41694;DHT22;27377;50.666;9.150;2023-10-08T03:41:38;14.60;99.90
41694;DHT22;27377;50.666;9.150;2023-10-08T03:44:05;14.60;99.90
41694;DHT22;27377;50.666;9.150;2023-10-08T03:46:34;14.60;99.90
41694;DHT22;27377;50.666;9.150;2023-10-08T03:49:14;14.60;99.90
41694;DHT22;27377;50.666;9.150;2023-10-08T03:52:04;14.60;99.90
41694;DHT22;27377;50.666;9.150;2023-10-08T03:54:32;14.60;99.90
41694;DHT22;27377;50.666;9.150;2023-10-08T03:57:06;14.60;99.90
41694;DHT22;27377;50.666;9.150;2023-10-08T03:59:39;14.60;99.90
41694;DHT22;27377;50.666;9.150;2023-10-08T04:02:07;14.60;99.90
41694;DHT22;27377;50.666;9.150;2023-10-08T04:04:43;14.60;99.90
41694;DHT22;27377;50.666;9.150;2023-10-08T04:07:21;14.50;99.90
41694;DHT22;27377;50.666;9.150;2023-10-08T04:10:10;14.60;99.90
41694;DHT22;27377;50.666;9.150;2023-10-08T04:12:39;14.50;99.90
41694;DHT22;27377;50.666;9.150;2023-10-08T04:15:12;14.60;99.90
41694;DHT22;27377;50.666;9.150;2023-10-08T04:17:41;14.50;99.90
41694;DHT22;27377;50.666;9.150;2023-10-08T04:20:14;14.60;99.90
41694;DHT22;27377;50.666;9.150;2023-10-08T04:23:07;14.60;99.90
41694;DHT22;27377;50.666;9.150;2023-10-08T04:25:43;14.60;99.90
41694;DHT22;27377;50.666;9.150;2023-10-08T04:28:09;14.60;99.90
41694;DHT22;27377;50.666;9.150;2023-10-08T04:30:49;14.60;99.90
41694;DHT22;27377;50.666;9.150;2023-10-08T04:33:16;14.60;99.90
41694;DHT22;27377;50.666;9.150;2023-10-08T04:35:45;14.60;99.90
41694;DHT22;27377;50.666;9.150;2023-10-08T04:38:23;14.50;99.90
41694;DHT22;27377;50.666;9.150;2023-10-08T04:40:54;14.50;99.90
41694;DHT22;27377;50.666;9.150;2023-10-08T04:43:21;14.50;99.90
41694;DHT22;27377;50.666;9.150;2023-10-08T04:45:51;14.60;99.90
41694;DHT22;27377;50.666;9.150;2023-10-08T04:48:20;14.60;99.90
41694;DHT22;27377;50.666;9.150;2023-10-08T04:50:49;14.60;99.90
41694;DHT22;27377;50.666;9.150;2023-10-08T04:53:34;14.60;99.90
41694;DHT22;27377;50.666;9.150;2023-10-08T04:56:04;14.60;99.90
41694;DHT22;27377;50.666;9.150;2023-10-08T04:58:49;14.60;99.90
41694;DHT22;27377;50.666;9.150;2023-10-08T05:01:17;14.60;99.90
41694;DHT22;27377;50.666;9.150;2023-10-08T05:03:51;14.60;99.90
41694;DHT22;27377;50.666;9.150;2023-10-08T05:06:32;14.60;99.90
41694;DHT22;27377;50.666;9.150;2023-10-08T05:09:02;14.60;99.90
41694;DHT22;27377;50.666;9.150;2023-10-08T05:11:47;14.60;99.90
41694;DHT22;27377;50.666;9.150;2023-10-08T05:14:21;14.60;99.90
41694;DHT22;27377;50.666;9.150;2023-10-08T05:17:11;14.60;99.90
41694;DHT22;27377;50.666;9.150;2023-10-08T05:19:41;14.60;99.90
41694;DHT22;27377;50.666;9.150;2023-10-08T05:22:10;14.50;99.90
41694;DHT22;27377;50.666;9.150;2023-10-08T05:24:56;14.60;99.90
41694;DHT22;27377;50.666;9.150;2023-10-08T05:27:52;14.60;99.90
41694;DHT22;27377;50.666;9.150;2023-10-08T05:33:03;14.60;99.90
41694;DHT22;27377;50.666;9.150;2023-10-08T05:35:36;14.60;99.90
41694;DHT22;27377;50.666;9.150;2023-10-08T05:38:11;14.60;99.90
41694;DHT22;27377;50.666;9.150;2023-10-08T05:40:57;14.60;99.90
41694;DHT22;27377;50.666;9.150;2023-10-08T05:43:34;14.60;99.90
41694;DHT22;27377;50.666;9.150;2023-10-08T05:46:21;14.60;99.90
41694;DHT22;27377;50.666;9.150;2023-10-08T05:48:54;14.60;99.90
41694;DHT22;27377;50.666;9.150;2023-10-08T05:51:42;14.60;99.90
41694;DHT22;27377;50.666;9.150;2023-10-08T05:54:22;14.60;99.90
41694;DHT22;27377;50.666;9.150;2023-10-08T05:59:41;14.60;99.90
41694;DHT22;27377;50.666;9.150;2023-10-08T06:02:27;14.60;99.90
41694;DHT22;27377;50.666;9.150;2023-10-08T06:05:04;14.60;99.90
41694;DHT22;27377;50.666;9.150;2023-10-08T06:07:51;14.60;99.90
41694;DHT22;27377;50.666;9.150;2023-10-08T06:10:26;14.60;99.90
41694;DHT22;27377;50.666;9.150;2023-10-08T06:13:13;14.50;99.90
41694;DHT22;27377;50.666;9.150;2023-10-08T06:18:20;14.60;99.90
41694;DHT22;27377;50.666;9.150;2023-10-08T06:20:52;14.50;99.90
41694;DHT22;27377;50.666;9.150;2023-10-08T06:23:22;14.60;99.90
41694;DHT22;27377;50.666;9.150;2023-10-08T06:25:50;14.50;99.90
41694;DHT22;27377;50.666;9.150;2023-10-08T06:28:43;14.60;99.90
41694;DHT22;27377;50.666;9.150;2023-10-08T06:31:10;14.60;99.90
41694;DHT22;27377;50.666;9.150;2023-10-08T06:33:43;14.50;99.90
41694;DHT22;27377;50.666;9.150;2023-10-08T06:36:09;14.60;99.90
41694;DHT22;27377;50.666;9.150;2023-10-08T06:38:39;14.60;99.90
41694;DHT22;27377;50.666;9.150;2023-10-08T06:41:07;14.60;99.90
41694;DHT22;27377;50.666;9.150;2023-10-08T06:43:42;14.60;99.90
41694;DHT22;27377;50.666;9.150;2023-10-08T06:46:13;14.60;99.90
41694;DHT22;27377;50.666;9.150;2023-10-08T06:48:39;14.60;99.90
41694;DHT22;27377;50.666;9.150;2023-10-08T06:51:09;14.70;99.90
41694;DHT22;27377;50.666;9.150;2023-10-08T06:53:45;14.60;99.90
41694;DHT22;27377;50.666;9.150;2023-10-08T06:56:12;14.70;99.90
41694;DHT22;27377;50.666;9.150;2023-10-08T06:58:39;14.70;99.90
41694;DHT22;27377;50.666;9.150;2023-10-08T07:01:10;14.70;99.90
41694;DHT22;27377;50.666;9.150;2023-10-08T07:03:38;14.70;99.90
41694;DHT22;27377;50.666;9.150;2023-10-08T07:06:04;14.70;99.90
41694;DHT22;27377;50.666;9.150;2023-10-08T07:08:43;14.70;99.90
41694;DHT22;27377;50.666;9.150;2023-10-08T07:11:12;14.70;99.90
41694;DHT22;27377;50.666;9.150;2023-10-08T07:13:38;14.70;99.90
41694;DHT22;27377;50.666;9.150;2023-10-08T07:16:05;14.70;99.90
41694;DHT22;27377;50.666;9.150;2023-10-08T07:18:31;14.80;99.90
41694;DHT22;27377;50.666;9.150;2023-10-08T07:20:59;14.70;99.90
41694;DHT22;27377;50.666;9.150;2023-10-08T07:23:29;14.80;99.90
41694;DHT22;27377;50.666;9.150;2023-10-08T07:26:01;14.70;99.90
41694;DHT22;27377;50.666;9.150;2023-10-08T07:28:44;14.70;99.90
41694;DHT22;27377;50.666;9.150;2023-10-08T07:31:22;14.70;99.90
41694;DHT22;27377;50.666;9.150;2023-10-08T07:33:53;14.70;99.90
41694;DHT22;27377;50.666;9.150;2023-10-08T07:36:24;14.80;99.90
41694;DHT22;27377;50.666;9.150;2023-10-08T07:38:51;14.80;99.90
41694;DHT22;27377;50.666;9.150;2023-10-08T07:41:17;14.80;99.90
41694;DHT22;27377;50.666;9.150;2023-10-08T07:43:45;14.80;99.90
41694;DHT22;27377;50.666;9.150;2023-10-08T07:46:25;14.80;99.90
41694;DHT22;27377;50.666;9.150;2023-10-08T07:48:54;14.80;99.90
41694;DHT22;27377;50.666;9.150;2023-10-08T07:51:20;14.90;99.90
41694;DHT22;27377;50.666;9.150;2023-10-08T07:53:48;14.90;99.90
41694;DHT22;27377;50.666;9.150;2023-10-08T07:56:14;14.90;99.90
41694;DHT22;27377;50.666;9.150;2023-10-08T07:58:40;14.90;99.90
41694;DHT22;27377;50.666;9.150;2023-10-08T08:01:09;14.90;99.90
41694;DHT22;27377;50.666;9.150;2023-10-08T08:03:36;14.90;99.90
41694;DHT22;27377;50.666;9.150;2023-10-08T08:06:09;14.90;99.90
41694;DHT22;27377;50.666;9.150;2023-10-08T08:08:36;15.00;99.90
41694;DHT22;27377;50.666;9.150;2023-10-08T08:11:06;15.00;99.90
41694;DHT22;27377;50.666;9.150;2023-10-08T08:13:39;15.00;99.90
41694;DHT22;27377;50.666;9.150;2023-10-08T08:16:07;15.00;99.90
41694;DHT22;27377;50.666;9.150;2023-10-08T08:18:47;15.00;99.90
41694;DHT22;27377;50.666;9.150;2023-10-08T08:21:14;15.00;99.90
41694;DHT22;27377;50.666;9.150;2023-10-08T08:23:47;15.00;99.90
41694;DHT22;27377;50.666;9.150;2023-10-08T08:26:20;15.00;99.90
41694;DHT22;27377;50.666;9.150;2023-10-08T08:28:59;15.10;99.90
41694;DHT22;27377;50.666;9.150;2023-10-08T08:31:28;15.10;99.90
41694;DHT22;27377;50.666;9.150;2023-10-08T08:33:57;15.10;99.90
41694;DHT22;27377;50.666;9.150;2023-10-08T08:36:35;15.20;99.90
41694;DHT22;27377;50.666;9.150;2023-10-08T08:39:04;15.20;99.90
41694;DHT22;27377;50.666;9.150;2023-10-08T08:41:30;15.20;99.90
41694;DHT22;27377;50.666;9.150;2023-10-08T08:43:56;15.20;99.90
41694;DHT22;27377;50.666;9.150;2023-10-08T08:46:37;15.20;99.90
41694;DHT22;27377;50.666;9.150;2023-10-08T08:49:07;15.20;99.90
41694;DHT22;27377;50.666;9.150;2023-10-08T08:51:34;15.30;99.90
41694;DHT22;27377;50.666;9.150;2023-10-08T08:54:03;15.20;99.90
41694;DHT22;27377;50.666;9.150;2023-10-08T08:56:33;15.30;99.90
41694;DHT22;27377;50.666;9.150;2023-10-08T08:59:01;15.30;99.90
41694;DHT22;27377;50.666;9.150;2023-10-08T09:01:27;15.30;99.90
41694;DHT22;27377;50.666;9.150;2023-10-08T09:04:02;15.30;99.90
41694;DHT22;27377;50.666;9.150;2023-10-08T09:06:32;15.30;99.90
41694;DHT22;27377;50.666;9.150;2023-10-08T09:09:02;15.30;99.90
41694;DHT22;27377;50.666;9.150;2023-10-08T09:11:42;15.30;99.90
41694;DHT22;27377;50.666;9.150;2023-10-08T09:14:08;15.30;99.90
41694;DHT22;27377;50.666;9.150;2023-10-08T09:16:35;15.30;99.90
41694;DHT22;27377;50.666;9.150;2023-10-08T09:19:01;15.30;99.90
41694;DHT22;27377;50.666;9.150;2023-10-08T09:21:27;15.20;99.90
41694;DHT22;27377;50.666;9.150;2023-10-08T09:23:52;15.10;99.90
41694;DHT22;27377;50.666;9.150;2023-10-08T09:26:24;15.00;99.90
41694;DHT22;27377;50.666;9.150;2023-10-08T09:28:50;15.00;99.90
41694;DHT22;27377;50.666;9.150;2023-10-08T09:31:17;14.90;99.90
41694;DHT22;27377;50.666;9.150;2023-10-08T09:33:44;14.90;99.90
41694;DHT22;27377;50.666;9.150;2023-10-08T09:36:18;14.90;99.90
41694;DHT22;27377;50.666;9.150;2023-10-08T09:38:46;14.90;99.90
41694;DHT22;27377;50.666;9.150;2023-10-08T09:41:14;14.80;99.90
41694;DHT22;27377;50.666;9.150;2023-10-08T09:43:41;14.80;99.90
41694;DHT22;27377;50.666;9.150;2023-10-08T09:46:19;14.80;99.90
41694;DHT22;27377;50.666;9.150;2023-10-08T09:48:50;14.80;99.90
41694;DHT22;27377;50.666;9.150;2023-10-08T09:51:19;14.70;99.90
41694;DHT22;27377;50.666;9.150;2023-10-08T09:56:41;14.70;99.90
41694;DHT22;27377;50.666;9.150;2023-10-08T09:59:09;14.60;99.90
41694;DHT22;27377;50.666;9.150;2023-10-08T10:01:39;14.60;99.90
41694;DHT22;27377;50.666;9.150;2023-10-08T10:04:10;14.60;99.90
41694;DHT22;27377;50.666;9.150;2023-10-08T10:06:36;14.60;99.90
41694;DHT22;27377;50.666;9.150;2023-10-08T10:09:02;14.60;99.90
41694;DHT22;27377;50.666;9.150;2023-10-08T10:11:32;14.60;99.90
41694;DHT22;27377;50.666;9.150;2023-10-08T10:13:59;14.50;99.90
41694;DHT22;27377;50.666;9.150;2023-10-08T10:16:25;14.50;99.90
41694;DHT22;27377;50.666;9.150;2023-10-08T10:18:55;14.40;99.90
41694;DHT22;27377;50.666;9.150;2023-10-08T10:21:32;14.50;99.90
41694;DHT22;27377;50.666;9.150;2023-10-08T10:23:59;14.40;99.90
41694;DHT22;27377;50.666;9.150;2023-10-08T10:26:28;14.40;99.90
41694;DHT22;27377;50.666;9.150;2023-10-08T10:31:37;14.40;99.90
41694;DHT22;27377;50.666;9.150;2023-10-08T10:34:09;14.30;99.90
41694;DHT22;27377;50.666;9.150;2023-10-08T10:36:37;14.30;99.90
41694;DHT22;27377;50.666;9.150;2023-10-08T10:39:06;14.20;99.90
41694;DHT22;27377;50.666;9.150;2023-10-08T10:41:52;14.20;99.90
41694;DHT22;27377;50.666;9.150;2023-10-08T10:44:25;14.20;99.90
41694;DHT22;27377;50.666;9.150;2023-10-08T10:46:52;14.10;99.90
41694;DHT22;27377;50.666;9.150;2023-10-08T10:49:38;14.20;99.90
41694;DHT22;27377;50.666;9.150;2023-10-08T10:52:25;14.10;99.90
41694;DHT22;27377;50.666;9.150;2023-10-08T10:55:05;14.10;99.90
41694;DHT22;27377;50.666;9.150;2023-10-08T10:57:52;14.10;99.90
41694;DHT22;27377;50.666;9.150;2023-10-08T11:00:41;14.10;99.90
41694;DHT22;27377;50.666;9.150;2023-10-08T11:03:07;14.00;99.90
41694;DHT22;27377;50.666;9.150;2023-10-08T11:05:43;14.10;99.90
41694;DHT22;27377;50.666;9.150;2023-10-08T11:08:14;14.10;99.90
41694;DHT22;27377;50.666;9.150;2023-10-08T11:10:42;14.10;99.90
41694;DHT22;27377;50.666;9.150;2023-10-08T11:13:15;14.10;99.90
41694;DHT22;27377;50.666;9.150;2023-10-08T11:15:42;14.10;99.90
41694;DHT22;27377;50.666;9.150;2023-10-08T11:18:22;14.20;99.90
41694;DHT22;27377;50.666;9.150;2023-10-08T11:21:05;14.10;99.90
41694;DHT22;27377;50.666;9.150;2023-10-08T11:23:46;14.10;99.90
41694;DHT22;27377;50.666;9.150;2023-10-08T11:26:18;14.10;99.90
41694;DHT22;27377;50.666;9.150;2023-10-08T11:28:45;14.10;99.90
41694;DHT22;27377;50.666;9.150;2023-10-08T11:31:17;14.10;99.90
41694;DHT22;27377;50.666;9.150;2023-10-08T11:33:47;14.10;99.90
41694;DHT22;27377;50.666;9.150;2023-10-08T11:36:20;14.10;99.90
41694;DHT22;27377;50.666;9.150;2023-10-08T11:39:11;14.10;99.90
41694;DHT22;27377;50.666;9.150;2023-10-08T11:41:58;14.10;99.90
41694;DHT22;27377;50.666;9.150;2023-10-08T11:44:33;14.10;99.90
41694;DHT22;27377;50.666;9.150;2023-10-08T11:47:05;14.10;99.90
41694;DHT22;27377;50.666;9.150;2023-10-08T11:49:41;14.10;99.90
41694;DHT22;27377;50.666;9.150;2023-10-08T11:52:16;14.10;99.90
41694;DHT22;27377;50.666;9.150;2023-10-08T11:54:45;14.20;99.90
41694;DHT22;27377;50.666;9.150;2023-10-08T11:57:14;14.10;99.90
41694;DHT22;27377;50.666;9.150;2023-10-08T11:59:45;14.10;99.90
41694;DHT22;27377;50.666;9.150;2023-10-08T12:02:12;14.10;99.90
41694;DHT22;27377;50.666;9.150;2023-10-08T12:04:42;14.10;99.90
41694;DHT22;27377;50.666;9.150;2023-10-08T12:07:10;14.10;99.90
41694;DHT22;27377;50.666;9.150;2023-10-08T12:09:36;14.10;99.90
41694;DHT22;27377;50.666;9.150;2023-10-08T12:12:05;14.10;99.90
41694;DHT22;27377;50.666;9.150;2023-10-08T12:14:35;14.10;99.90
41694;DHT22;27377;50.666;9.150;2023-10-08T12:17:03;14.10;99.90
41694;DHT22;27377;50.666;9.150;2023-10-08T12:19:39;14.10;99.90
41694;DHT22;27377;50.666;9.150;2023-10-08T12:22:06;14.00;99.90
41694;DHT22;27377;50.666;9.150;2023-10-08T12:24:33;14.00;99.90
41694;DHT22;27377;50.666;9.150;2023-10-08T12:26:59;14.10;99.90
41694;DHT22;27377;50.666;9.150;2023-10-08T12:29:24;14.10;99.90
41694;DHT22;27377;50.666;9.150;2023-10-08T12:31:51;14.10;99.90
41694;DHT22;27377;50.666;9.150;2023-10-08T12:34:18;14.10;99.90
41694;DHT22;27377;50.666;9.150;2023-10-08T12:36:46;14.10;99.90
41694;DHT22;27377;50.666;9.150;2023-10-08T12:39:16;14.10;99.90
41694;DHT22;27377;50.666;9.150;2023-10-08T12:41:45;14.00;99.90
41694;DHT22;27377;50.666;9.150;2023-10-08T12:44:11;14.00;99.90
41694;DHT22;27377;50.666;9.150;2023-10-08T12:46:37;14.00;99.90
41694;DHT22;27377;50.666;9.150;2023-10-08T12:49:03;14.00;99.90
41694;DHT22;27377;50.666;9.150;2023-10-08T12:51:30;14.00;99.90
41694;DHT22;27377;50.666;9.150;2023-10-08T12:53:59;14.00;99.90
41694;DHT22;27377;50.666;9.150;2023-10-08T12:56:36;14.00;99.90
41694;DHT22;27377;50.666;9.150;2023-10-08T12:59:10;14.00;99.90
41694;DHT22;27377;50.666;9.150;2023-10-08T13:01:46;14.00;99.90
41694;DHT22;27377;50.666;9.150;2023-10-08T13:04:19;14.00;99.90
41694;DHT22;27377;50.666;9.150;2023-10-08T13:06:57;14.00;99.90
41694;DHT22;27377;50.666;9.150;2023-10-08T13:09:24;14.00;99.90
41694;DHT22;27377;50.666;9.150;2023-10-08T13:11:50;14.00;99.90
41694;DHT22;27377;50.666;9.150;2023-10-08T13:14:15;14.00;99.90
41694;DHT22;27377;50.666;9.150;2023-10-08T13:16:41;14.00;99.90
41694;DHT22;27377;50.666;9.150;2023-10-08T13:19:07;14.00;99.90
41694;DHT22;27377;50.666;9.150;2023-10-08T13:21:34;14.00;99.90
41694;DHT22;27377;50.666;9.150;2023-10-08T13:24:01;14.00;99.90
41694;DHT22;27377;50.666;9.150;2023-10-08T13:26:29;14.00;99.90
41694;DHT22;27377;50.666;9.150;2023-10-08T13:28:57;14.00;99.90
41694;DHT22;27377;50.666;9.150;2023-10-08T13:31:24;14.00;99.90
41694;DHT22;27377;50.666;9.150;2023-10-08T13:33:50;14.00;99.90
41694;DHT22;27377;50.666;9.150;2023-10-08T13:36:18;14.00;99.90
41694;DHT22;27377;50.666;9.150;2023-10-08T13:38:43;14.00;99.90
41694;DHT22;27377;50.666;9.150;2023-10-08T13:41:11;14.00;99.90
41694;DHT22;27377;50.666;9.150;2023-10-08T13:43:50;14.00;99.90
41694;DHT22;27377;50.666;9.150;2023-10-08T13:46:19;14.00;99.90
41694;DHT22;27377;50.666;9.150;2023-10-08T13:48:48;14.00;99.90
41694;DHT22;27377;50.666;9.150;2023-10-08T13:51:16;14.00;99.90
41694;DHT22;27377;50.666;9.150;2023-10-08T13:53:49;14.00;99.90
41694;DHT22;27377;50.666;9.150;2023-10-08T13:56:18;14.00;99.90
41694;DHT22;27377;50.666;9.150;2023-10-08T13:58:46;14.10;99.90
41694;DHT22;27377;50.666;9.150;2023-10-08T14:01:15;14.00;99.90
41694;DHT22;27377;50.666;9.150;2023-10-08T14:03:50;14.00;99.90
41694;DHT22;27377;50.666;9.150;2023-10-08T14:06:20;14.00;99.90
41694;DHT22;27377;50.666;9.150;2023-10-08T14:08:46;14.10;99.90
41694;DHT22;27377;50.666;9.150;2023-10-08T14:11:21;14.00;99.90
41694;DHT22;27377;50.666;9.150;2023-10-08T14:13:56;14.10;99.90
41694;DHT22;27377;50.666;9.150;2023-10-08T14:16:22;14.00;99.90
41694;DHT22;27377;50.666;9.150;2023-10-08T14:18:55;14.00;99.90
41694;DHT22;27377;50.666;9.150;2023-10-08T14:21:21;14.00;99.90
41694;DHT22;27377;50.666;9.150;2023-10-08T14:23:56;14.00;99.90
41694;DHT22;27377;50.666;9.150;2023-10-08T14:26:22;14.10;99.90
41694;DHT22;27377;50.666;9.150;2023-10-08T14:28:49;14.10;99.90
41694;DHT22;27377;50.666;9.150;2023-10-08T14:31:20;14.10;99.90
41694;DHT22;27377;50.666;9.150;2023-10-08T14:33:50;14.10;99.90
41694;DHT22;27377;50.666;9.150;2023-10-08T14:36:25;14.10;99.90
41694;DHT22;27377;50.666;9.150;2023-10-08T14:39:09;14.20;99.90
41694;DHT22;27377;50.666;9.150;2023-10-08T14:41:54;14.10;99.90
41694;DHT22;27377;50.666;9.150;2023-10-08T14:44:38;14.10;99.90
41694;DHT22;27377;50.666;9.150;2023-10-08T14:47:04;14.20;99.90
41694;DHT22;27377;50.666;9.150;2023-10-08T14:49:31;14.20;99.90
41694;DHT22;27377;50.666;9.150;2023-10-08T14:51:57;14.20;99.90
41694;DHT22;27377;50.666;9.150;2023-10-08T14:54:23;14.20;99.90
41694;DHT22;27377;50.666;9.150;2023-10-08T14:56:50;14.20;99.90
41694;DHT22;27377;50.666;9.150;2023-10-08T14:59:16;14.20;99.90
41694;DHT22;27377;50.666;9.150;2023-10-08T15:01:43;14.20;99.90
41694;DHT22;27377;50.666;9.150;2023-10-08T15:04:10;14.20;99.90
41694;DHT22;27377;50.666;9.150;2023-10-08T15:06:37;14.20;99.90
41694;DHT22;27377;50.666;9.150;2023-10-08T15:09:02;14.20;99.90
41694;DHT22;27377;50.666;9.150;2023-10-08T15:11:28;14.20;99.90
41694;DHT22;27377;50.666;9.150;2023-10-08T15:13:56;14.10;99.90
41694;DHT22;27377;50.666;9.150;2023-10-08T15:16:22;14.10;99.90
41694;DHT22;27377;50.666;9.150;2023-10-08T15:18:52;14.20;99.90
41694;DHT22;27377;50.666;9.150;2023-10-08T15:21:18;14.20;99.90
41694;DHT22;27377;50.666;9.150;2023-10-08T15:23:45;14.20;99.90
41694;DHT22;27377;50.666;9.150;2023-10-08T15:26:11;14.20;99.90
41694;DHT22;27377;50.666;9.150;2023-10-08T15:28:42;14.20;99.90
41694;DHT22;27377;50.666;9.150;2023-10-08T15:31:08;14.10;99.90
41694;DHT22;27377;50.666;9.150;2023-10-08T15:33:33;14.20;99.90
41694;DHT22;27377;50.666;9.150;2023-10-08T15:35:59;14.20;99.90
41694;DHT22;27377;50.666;9.150;2023-10-08T15:38:25;14.20;99.90
41694;DHT22;27377;50.666;9.150;2023-10-08T15:40:51;14.20;99.90
41694;DHT22;27377;50.666;9.150;2023-10-08T15:43:17;14.20;99.90
41694;DHT22;27377;50.666;9.150;2023-10-08T15:45:43;14.10;99.90
41694;DHT22;27377;50.666;9.150;2023-10-08T15:48:10;14.10;99.90
41694;DHT22;27377;50.666;9.150;2023-10-08T15:50:36;14.10;99.90
41694;DHT22;27377;50.666;9.150;2023-10-08T15:53:01;14.10;99.90
41694;DHT22;27377;50.666;9.150;2023-10-08T15:55:27;14.10;99.90
41694;DHT22;27377;50.666;9.150;2023-10-08T15:57:53;14.10;99.90
41694;DHT22;27377;50.666;9.150;2023-10-08T16:00:18;14.10;99.90
41694;DHT22;27377;50.666;9.150;2023-10-08T16:02:44;14.00;99.90
41694;DHT22;27377;50.666;9.150;2023-10-08T16:05:11;14.00;99.90
41694;DHT22;27377;50.666;9.150;2023-10-08T16:07:37;14.10;99.90
41694;DHT22;27377;50.666;9.150;2023-10-08T16:10:03;14.10;99.90